« 定点 富山空港 2019/10/22 tue | トップページ | エアフェスタ浜松2019【B.I.編】 浜松飛行場 2019/10/20 sun »

2019/10/25

定点 富山空港 2019/10/23 wed

内篭りして写真の整理をしたいのですが、お天気様が誘ってきます。

RJNT 222300Z VRB01KT 9999 FEW010 18/15 Q1017

20191023_rjnt_00daiichimiyamaru

第一宮丸 JD3144 JP

20191023_rjnt_01ja604a

上空通過

20191023_rjnt_02akane

今日はタンデム飛行隊がひっきりなしに西へ向かってます

20191023_rjnt_03ja604a

何処見ても、映りこみます。

20191023_rjnt_04ja604a

ANA313 RJTT-RJNT JA604A B767-381ER

RJNT 230000Z VRB01KT 9999 FEW010 19/15 Q1017

20191023_rjnt_05ja604a

本日、北陸新幹線のダイヤ発表 25日から東京直通します。

20191023_rjnt_06ja604a

赤い羽根の時期ですね。

20191023_rjnt_07ja604a

20191023_rjnt_08ja604a

ANA316 RJNT-RJTT JA604A B767-381ER

20191023_rjnt_09ja604a

大型化は明日まで

RJNT 230100Z VRB02KT 9999 FEW030 20/14 Q1017

20191023_rjnt_10b6652

20191023_rjnt_11b6652

CSN613 ZYTL-RJNT B-6652 A320-232

20191023_rjnt_12ja80an

20191023_rjnt_13ja80an

ANA315 RJTT-RJNT JA80AN B737-881

RJNT 230100Z VRB02KT 9999 FEW030 20/14 Q1017

20191023_rjnt_14ja6768

「とやま」さんが引き出されましたが、午前中はチンとしてました。

20191023_rjnt_15b6652

CSN614 RJNT-ZYTL B-6652 A320-232

20191023_rjnt_16ja80an

ANA1181 RJNT-RJCC JA80AN B737-881

RJNT 230300Z 35007KT 330V030 9999 FEW030 SCT040 21/14 Q1017

20191023_rjnt_17ja6512

JA6512 AS350B3 AKF

今日は午前で離脱、夜にはB8も来ました。

 

|

« 定点 富山空港 2019/10/22 tue | トップページ | エアフェスタ浜松2019【B.I.編】 浜松飛行場 2019/10/20 sun »

富山空港」カテゴリの記事

コメント

コメントを書く



(ウェブ上には掲載しません)


コメントは記事投稿者が公開するまで表示されません。



« 定点 富山空港 2019/10/22 tue | トップページ | エアフェスタ浜松2019【B.I.編】 浜松飛行場 2019/10/20 sun »